This is the latest recevied weather packets stored in our database for station/object KB1FCH. If no packets are shown the sender has not sent any weather packets the latest 10 day(s).
| Time | Temp. | Humidity | Pressure | Rain* | Wind** | Luminosity | Snow |
|---|---|---|---|---|---|---|---|
| 1777459275 | 8.33° C | 96% | 1006.9 hPa | 0 mm | - | 0 W/m² | - |
| 1777456275 | 8.33° C | 96% | 1007 hPa | 0 mm | - | 0 W/m² | - |
| 1777442475 | 9.44° C | 92% | 1006.5 hPa | 0 mm | - | 0 W/m² | - |
| 1777440675 | 9.44° C | 92% | 1006.3 hPa | 0 mm | - | 0 W/m² | - |
| 1777435875 | 10° C | 88% | 1006 hPa | 0 mm | - | 0 W/m² | - |
| 1777435215 | 10° C | 88% | 1006 hPa | 0 mm | - | 0 W/m² | - |
| 1777434616 | 10.56° C | 87% | 1005.9 hPa | 0 mm | - | 0 W/m² | - |
| 1777432895 | 10.56° C | 85% | 1005.6 hPa | 0 mm | - | 1 W/m² | - |
| 1777431674 | 11.11° C | 83% | 1005.6 hPa | 0 mm | - | 2 W/m² | - |
| 1777426816 | 12.22° C | 75% | 1005.6 hPa | 0 mm | - | 30 W/m² | - |
| 1777414875 | 11.67° C | 77% | 1005.5 hPa | 0 mm | - | 86 W/m² | - |
| 1777409475 | 11.67° C | 75% | 1006 hPa | 0 mm | - | 73 W/m² | - |
| 1777405275 | 11.11° C | 80% | 1005.6 hPa | 0 mm | - | 124 W/m² | - |
| 1777403475 | 11.67° C | 81% | 1005.4 hPa | 0 mm | - | 95 W/m² | - |
| 1777399875 | 10° C | 88% | 1005.5 hPa | 0 mm | - | 89 W/m² | - |
| 1777396875 | 8.89° C | 94% | 1005.3 hPa | 0 mm | - | 63 W/m² | - |
| 1777393815 | 8.33° C | 94% | 1005.1 hPa | 0 mm | - | 42 W/m² | - |
| 1777393275 | 8.33° C | 95% | 1005.1 hPa | 0 mm | - | 31 W/m² | - |
| 1777384875 | 7.78° C | 93% | 1003.9 hPa | 0 mm | - | 19 W/m² | - |
| 1777383615 | 7.78° C | 94% | 1003.6 hPa | 0 mm | - | 14 W/m² | - |
| 1777380695 | 6.67° C | 94% | 1003.3 hPa | 0 mm | - | 0 W/m² | - |
| 1777379475 | 6.67° C | 94% | 1003.1 hPa | 0 mm | - | 0 W/m² | - |
| 1777377095 | 6.11° C | 94% | 1002.7 hPa | 0 mm | - | 0 W/m² | - |
| 1777370475 | 8.33° C | 86% | 1002.6 hPa | 0 mm | - | 0 W/m² | - |
| 1777367415 | 8.89° C | 85% | 1002.8 hPa | 0 mm | - | 0 W/m² | - |
* Rain latest hour (hover to see other rain measurements)
** Current wind speed in m/s (hover to see current wind gust speed)